Time;durP1;ratioP1;P1;durP2;ratioP2;P2;SDS_P1;SDS_P2;PMS_P1;PMS_P2;Temp;Humidity;BMP_temperature;BMP_pressure;BME280_temperature;BME280_humidity;BME280_pressure;Samples;Min_cycle;Max_cycle;Signal;HPM_P1;HPM_P2
2023/04/18 00:00:28;;;;;;;3.28;3.08;;;;;;;;;;5039979;28;20209;-61
2023/04/18 00:02:57;;;;;;;3.13;2.83;;;;;;;;;;5039884;28;20300;-61
2023/04/18 00:05:24;;;;;;;3.10;2.80;;;;;;;;;;5040097;28;20315;-61
2023/04/18 00:07:52;;;;;;;2.97;2.78;;;;;;;;;;5040560;28;20206;-61
2023/04/18 00:10:19;;;;;;;3.10;2.90;;;;;;;;;;5039753;28;20201;-61
2023/04/18 00:12:47;;;;;;;3.22;3.03;;;;;;;;;;5039970;28;20229;-61
2023/04/18 00:15:17;;;;;;;3.22;3.00;;;;;;;;;;5039886;28;20567;-61
2023/04/18 00:17:44;;;;;;;3.58;3.28;;;;;;;;;;5039880;28;20206;-61
2023/04/18 00:20:12;;;;;;;2.80;2.58;;;;;;;;;;5039742;28;20205;-61
2023/04/18 00:22:41;;;;;;;3.70;3.40;;;;;;;;;;5039701;28;20597;-61
2023/04/18 00:25:09;;;;;;;3.13;2.90;;;;;;;;;;5039919;28;20300;-61
2023/04/18 00:27:37;;;;;;;3.00;2.80;;;;;;;;;;5039692;28;20213;-61
2023/04/18 00:30:05;;;;;;;3.08;2.78;;;;;;;;;;5039872;28;20197;-61
2023/04/18 00:32:33;;;;;;;3.20;3.00;;;;;;;;;;5039621;28;20324;-61
2023/04/18 00:35:01;;;;;;;2.90;2.70;;;;;;;;;;5039667;28;20205;-61
2023/04/18 00:37:28;;;;;;;3.10;2.90;;;;;;;;;;5039782;28;20235;-61
2023/04/18 00:39:56;;;;;;;3.17;2.97;;;;;;;;;;5039286;28;20206;-61
2023/04/18 00:42:24;;;;;;;3.20;3.00;;;;;;;;;;5039308;28;20205;-61
2023/04/18 00:44:52;;;;;;;3.05;2.85;;;;;;;;;;5039602;28;20271;-61
2023/04/18 00:47:19;;;;;;;3.08;2.88;;;;;;;;;;5039480;28;20296;-61
2023/04/18 00:49:49;;;;;;;2.63;2.42;;;;;;;;;;5039608;28;20211;-61
2023/04/18 00:52:17;;;;;;;2.88;2.67;;;;;;;;;;5039431;28;20288;-61
2023/04/18 00:54:45;;;;;;;3.50;3.20;;;;;;;;;;5038695;28;20505;-61
2023/04/18 00:57:13;;;;;;;3.00;2.80;;;;;;;;;;5039323;28;20304;-61
2023/04/18 00:59:40;;;;;;;3.00;2.80;;;;;;;;;;5039237;28;20206;-61
2023/04/18 01:02:07;;;;;;;2.90;2.70;;;;;;;;;;5039201;28;20224;-61
2023/04/18 01:04:36;;;;;;;2.80;2.60;;;;;;;;;;5038951;28;20210;-61
2023/04/18 01:07:05;;;;;;;2.90;2.70;;;;;;;;;;5039138;28;20214;-61
2023/04/18 01:09:33;;;;;;;2.78;2.58;;;;;;;;;;5039048;28;20202;-61
2023/04/18 01:12:00;;;;;;;3.00;2.80;;;;;;;;;;5038506;28;20276;-61
2023/04/18 01:14:28;;;;;;;2.83;2.63;;;;;;;;;;5038810;28;20300;-61
2023/04/18 01:16:56;;;;;;;2.88;2.67;;;;;;;;;;5038411;28;20268;-61
2023/04/18 01:19:23;;;;;;;2.95;2.75;;;;;;;;;;5038777;28;20206;-61
2023/04/18 01:21:53;;;;;;;3.20;3.00;;;;;;;;;;5038482;28;20440;-61
2023/04/18 01:24:23;;;;;;;3.03;2.83;;;;;;;;;;5038575;28;20209;-61
2023/04/18 01:26:50;;;;;;;3.22;2.97;;;;;;;;;;5038470;28;20559;-61
2023/04/18 01:29:18;;;;;;;2.55;2.35;;;;;;;;;;5038780;28;20558;-63
2023/04/18 01:31:45;;;;;;;3.10;2.90;;;;;;;;;;5038676;28;20226;-61
2023/04/18 01:34:13;;;;;;;2.85;2.65;;;;;;;;;;5038285;28;20210;-61
2023/04/18 01:36:41;;;;;;;2.63;2.42;;;;;;;;;;5038213;28;20214;-61
2023/04/18 01:39:09;;;;;;;2.88;2.67;;;;;;;;;;5038490;28;20288;-61
2023/04/18 01:41:37;;;;;;;2.72;2.53;;;;;;;;;;5038499;28;20613;-61
2023/04/18 01:44:05;;;;;;;2.75;2.55;;;;;;;;;;5038239;28;20213;-61
2023/04/18 01:46:33;;;;;;;3.20;3.00;;;;;;;;;;5038365;28;20255;-61
2023/04/18 01:49:00;;;;;;;2.58;2.38;;;;;;;;;;5038506;28;20564;-61
2023/04/18 01:51:28;;;;;;;2.70;2.50;;;;;;;;;;5037812;28;20229;-61
2023/04/18 01:53:55;;;;;;;2.63;2.42;;;;;;;;;;5038035;28;20601;-61
2023/04/18 01:56:23;;;;;;;2.58;2.38;;;;;;;;;;5038157;28;20206;-61
2023/04/18 01:58:52;;;;;;;2.58;2.38;;;;;;;;;;5038124;28;20272;-61
2023/04/18 02:01:19;;;;;;;2.80;2.60;;;;;;;;;;5038165;28;20205;-61
2023/04/18 02:03:46;;;;;;;2.95;2.75;;;;;;;;;;5037624;28;20663;-61
2023/04/18 02:06:14;;;;;;;2.60;2.40;;;;;;;;;;5037857;28;20206;-61
2023/04/18 02:08:41;;;;;;;2.65;2.45;;;;;;;;;;5037615;28;20216;-61
2023/04/18 02:11:09;;;;;;;2.60;2.40;;;;;;;;;;5038200;28;20484;-61
2023/04/18 02:13:36;;;;;;;2.75;2.55;;;;;;;;;;5037531;28;20321;-61
2023/04/18 02:16:05;;;;;;;2.80;2.60;;;;;;;;;;5037775;28;20492;-61
2023/04/18 02:18:33;;;;;;;2.80;2.60;;;;;;;;;;5037659;28;20304;-61
2023/04/18 02:21:00;;;;;;;2.65;2.45;;;;;;;;;;5037570;28;20272;-61
2023/04/18 02:23:28;;;;;;;2.60;2.40;;;;;;;;;;5037785;28;20293;-61
2023/04/18 02:25:55;;;;;;;2.70;2.50;;;;;;;;;;5037730;28;20494;-61
2023/04/18 02:28:23;;;;;;;2.67;2.47;;;;;;;;;;5037456;28;20809;-61
2023/04/18 02:30:50;;;;;;;2.78;2.58;;;;;;;;;;5037317;28;20220;-61
2023/04/18 02:33:19;;;;;;;2.80;2.60;;;;;;;;;;5037050;28;20225;-61
2023/04/18 02:35:47;;;;;;;2.70;2.50;;;;;;;;;;5037635;28;20212;-61
2023/04/18 02:38:14;;;;;;;2.88;2.67;;;;;;;;;;5037574;28;20455;-61
2023/04/18 02:40:41;;;;;;;2.60;2.40;;;;;;;;;;5037587;28;20500;-61
2023/04/18 02:43:09;;;;;;;2.60;2.40;;;;;;;;;;5036757;28;20296;-61
2023/04/18 02:45:37;;;;;;;2.45;2.25;;;;;;;;;;5037095;28;20696;-61
2023/04/18 02:48:04;;;;;;;2.60;2.40;;;;;;;;;;5037049;28;20206;-61
2023/04/18 02:50:34;;;;;;;2.80;2.60;;;;;;;;;;5037337;28;20722;-61
2023/04/18 02:53:01;;;;;;;2.60;2.40;;;;;;;;;;5037078;28;20639;-61
2023/04/18 02:55:29;;;;;;;2.33;2.22;;;;;;;;;;5036788;28;20577;-61
2023/04/18 02:57:57;;;;;;;2.80;2.60;;;;;;;;;;5037125;28;20202;-61
2023/04/18 03:00:24;;;;;;;2.55;2.35;;;;;;;;;;5037094;28;20304;-61
2023/04/18 03:02:53;;;;;;;2.90;2.70;;;;;;;;;;5036152;28;20260;-61
2023/04/18 03:05:20;;;;;;;2.60;2.40;;;;;;;;;;5037526;28;20555;-61
2023/04/18 03:07:49;;;;;;;2.60;2.40;;;;;;;;;;5037274;28;20206;-61
2023/04/18 03:10:17;;;;;;;2.60;2.40;;;;;;;;;;5037486;28;20553;-61
2023/04/18 03:12:46;;;;;;;2.90;2.70;;;;;;;;;;5036797;28;20294;-61
2023/04/18 03:15:14;;;;;;;2.20;2.10;;;;;;;;;;5036672;28;20293;-61
2023/04/18 03:17:41;;;;;;;2.90;2.70;;;;;;;;;;5039669;28;20205;-61
2023/04/18 03:20:09;;;;;;;2.60;2.40;;;;;;;;;;5040857;28;20620;-61
2023/04/18 03:22:37;;;;;;;2.55;2.35;;;;;;;;;;5041147;28;20214;-61
2023/04/18 03:25:07;;;;;;;2.13;2.03;;;;;;;;;;5040762;28;20296;-61
2023/04/18 03:27:35;;;;;;;2.03;1.92;;;;;;;;;;5040374;28;20212;-61
2023/04/18 03:30:02;;;;;;;2.38;2.20;;;;;;;;;;5041021;28;20244;-61
2023/04/18 03:32:32;;;;;;;2.75;2.55;;;;;;;;;;5040484;28;20233;-61
2023/04/18 03:34:59;;;;;;;2.67;2.47;;;;;;;;;;5040455;28;20205;-61
2023/04/18 03:37:27;;;;;;;2.50;2.30;;;;;;;;;;5040535;28;20244;-61
2023/04/18 03:39:54;;;;;;;2.60;2.40;;;;;;;;;;5040395;28;20205;-62
2023/04/18 03:42:23;;;;;;;2.25;2.10;;;;;;;;;;5040672;28;20303;-62
2023/04/18 03:44:51;;;;;;;2.60;2.40;;;;;;;;;;5040158;28;20231;-62
2023/04/18 03:47:18;;;;;;;2.45;2.30;;;;;;;;;;5040664;28;20229;-62
2023/04/18 03:49:46;;;;;;;2.33;2.17;;;;;;;;;;5040445;28;20216;-62
2023/04/18 03:52:14;;;;;;;2.28;2.17;;;;;;;;;;5040091;28;20226;-61
2023/04/18 03:54:42;;;;;;;2.67;2.47;;;;;;;;;;5039872;28;20249;-61
2023/04/18 03:57:09;;;;;;;2.30;2.20;;;;;;;;;;5040291;28;20307;-61
2023/04/18 03:59:38;;;;;;;2.38;2.28;;;;;;;;;;5040050;28;20296;-61
2023/04/18 04:02:06;;;;;;;2.20;2.00;;;;;;;;;;5039623;28;20205;-61
2023/04/18 04:04:33;;;;;;;2.45;2.25;;;;;;;;;;5039505;28;20213;-61
2023/04/18 04:07:00;;;;;;;2.38;2.17;;;;;;;;;;5039662;28;20213;-61
2023/04/18 04:09:28;;;;;;;2.40;2.20;;;;;;;;;;5039702;28;20233;-61
2023/04/18 04:11:55;;;;;;;2.65;2.45;;;;;;;;;;5039667;28;20652;-62
2023/04/18 04:14:23;;;;;;;2.42;2.22;;;;;;;;;;5039749;28;20514;-62
2023/04/18 04:16:52;;;;;;;2.55;2.35;;;;;;;;;;5039824;28;20205;-63
2023/04/18 04:19:19;;;;;;;2.13;2.03;;;;;;;;;;5039508;28;20288;-61
2023/04/18 04:21:47;;;;;;;2.50;2.30;;;;;;;;;;5040031;28;20212;-61
2023/04/18 04:24:14;;;;;;;2.03;1.92;;;;;;;;;;5039093;28;20630;-61
2023/04/18 04:26:42;;;;;;;2.00;1.90;;;;;;;;;;5039400;28;20213;-63
2023/04/18 04:29:10;;;;;;;2.03;1.92;;;;;;;;;;5039151;28;20232;-61
2023/04/18 04:31:37;;;;;;;2.33;2.20;;;;;;;;;;5039220;28;20309;-61
2023/04/18 04:34:07;;;;;;;2.13;2.00;;;;;;;;;;5038595;28;20236;-61
2023/04/18 04:36:35;;;;;;;2.38;2.17;;;;;;;;;;5038650;28;20205;-61
2023/04/18 04:39:03;;;;;;;2.40;2.20;;;;;;;;;;5038632;28;20213;-61
2023/04/18 04:41:30;;;;;;;2.50;2.30;;;;;;;;;;5038849;28;20206;-61
2023/04/18 04:43:58;;;;;;;2.75;2.45;;;;;;;;;;5038294;28;20228;-61
2023/04/18 04:46:28;;;;;;;2.92;2.30;;;;;;;;;;5038604;28;20205;-61
2023/04/18 04:48:55;;;;;;;3.95;2.45;;;;;;;;;;5037336;28;20209;-61
2023/04/18 04:51:24;;;;;;;2.75;2.53;;;;;;;;;;5037949;28;20712;-61
2023/04/18 04:53:51;;;;;;;2.60;2.40;;;;;;;;;;5038425;28;20237;-61
2023/04/18 04:56:19;;;;;;;4.13;2.55;;;;;;;;;;5037380;28;20206;-61
2023/04/18 04:58:46;;;;;;;3.67;2.78;;;;;;;;;;5037141;28;20216;-61
2023/04/18 05:01:13;;;;;;;3.72;3.00;;;;;;;;;;5037487;28;20217;-61
2023/04/18 05:03:41;;;;;;;3.97;2.80;;;;;;;;;;5036330;28;20237;-61
2023/04/18 05:06:08;;;;;;;4.15;2.75;;;;;;;;;;5036484;28;20205;-61
2023/04/18 05:08:37;;;;;;;4.50;2.78;;;;;;;;;;5036145;28;20206;-61
2023/04/18 05:11:04;;;;;;;4.10;2.78;;;;;;;;;;5036897;28;20213;-61
2023/04/18 05:13:32;;;;;;;3.35;2.70;;;;;;;;;;5036801;28;20236;-61
2023/04/18 05:15:59;;;;;;;3.95;2.65;;;;;;;;;;5036363;28;20206;-61
2023/04/18 05:18:26;;;;;;;4.28;3.00;;;;;;;;;;5036130;28;20216;-61
2023/04/18 05:20:54;;;;;;;3.47;2.92;;;;;;;;;;5036338;28;20205;-61
2023/04/18 05:23:21;;;;;;;5.40;3.00;;;;;;;;;;5036761;28;20229;-61
2023/04/18 05:25:50;;;;;;;4.68;2.92;;;;;;;;;;5036929;28;20208;-61
2023/04/18 05:28:17;;;;;;;5.15;3.05;;;;;;;;;;5035586;28;20231;-61
2023/04/18 05:30:45;;;;;;;5.15;2.83;;;;;;;;;;5036443;28;20213;-61
2023/04/18 05:33:13;;;;;;;4.75;3.05;;;;;;;;;;5035849;28;20229;-61
2023/04/18 05:35:40;;;;;;;3.33;2.75;;;;;;;;;;5036324;28;20213;-61
2023/04/18 05:38:07;;;;;;;5.95;3.58;;;;;;;;;;5037074;28;20321;-61
2023/04/18 05:40:35;;;;;;;5.15;3.10;;;;;;;;;;5035973;28;20568;-61
2023/04/18 05:43:04;;;;;;;3.97;3.15;;;;;;;;;;5036038;28;20246;-61
2023/04/18 05:45:31;;;;;;;4.10;3.22;;;;;;;;;;5036173;28;20214;-61
2023/04/18 05:47:58;;;;;;;5.70;3.15;;;;;;;;;;5036334;28;20198;-61
2023/04/18 05:50:26;;;;;;;4.32;2.90;;;;;;;;;;5036438;28;20213;-61
2023/04/18 05:52:53;;;;;;;4.60;3.30;;;;;;;;;;5035974;28;20226;-61
2023/04/18 05:55:21;;;;;;;5.15;3.42;;;;;;;;;;5035826;28;20280;-61
2023/04/18 05:57:48;;;;;;;5.85;3.35;;;;;;;;;;5035542;28;20206;-61
2023/04/18 06:00:17;;;;;;;5.00;3.20;;;;;;;;;;5035971;28;20198;-63
2023/04/18 06:02:45;;;;;;;3.78;3.05;;;;;;;;;;5028630;28;20486;-61
2023/04/18 06:05:12;;;;;;;5.40;3.25;;;;;;;;;;5016105;28;20208;-61
2023/04/18 06:07:40;;;;;;;6.40;3.47;;;;;;;;;;5016063;28;20206;-62
2023/04/18 06:10:09;;;;;;;3.83;3.10;;;;;;;;;;5015708;28;20202;-61
2023/04/18 06:12:37;;;;;;;4.75;3.40;;;;;;;;;;5016022;28;20206;-63
2023/04/18 06:15:05;;;;;;;4.75;3.55;;;;;;;;;;5016158;28;20207;-61
2023/04/18 06:17:34;;;;;;;4.15;3.10;;;;;;;;;;5015980;28;20210;-61
2023/04/18 06:20:01;;;;;;;5.53;3.40;;;;;;;;;;5016391;28;20289;-61
2023/04/18 06:22:29;;;;;;;4.65;3.03;;;;;;;;;;5016060;28;20206;-61
2023/04/18 06:24:56;;;;;;;4.88;3.00;;;;;;;;;;5015901;28;20213;-61
2023/04/18 06:27:24;;;;;;;4.85;3.22;;;;;;;;;;5016084;28;20559;-61
2023/04/18 06:29:51;;;;;;;5.28;3.10;;;;;;;;;;5016514;28;20478;-61
2023/04/18 06:32:18;;;;;;;4.88;2.72;;;;;;;;;;5015837;28;20205;-61
2023/04/18 06:34:47;;;;;;;4.22;3.10;;;;;;;;;;5015527;28;20237;-61
2023/04/18 06:37:14;;;;;;;4.20;2.95;;;;;;;;;;5016448;28;20206;-62
2023/04/18 06:39:42;;;;;;;5.40;2.90;;;;;;;;;;5016103;28;20298;-61
2023/04/18 06:42:09;;;;;;;4.43;3.08;;;;;;;;;;5015471;28;20210;-61
2023/04/18 06:44:36;;;;;;;5.20;3.33;;;;;;;;;;5015258;28;20240;-62
2023/04/18 06:47:03;;;;;;;4.18;2.92;;;;;;;;;;5015085;28;20207;-61
2023/04/18 06:49:31;;;;;;;5.13;3.05;;;;;;;;;;5015401;28;20606;-63
2023/04/18 06:52:00;;;;;;;5.13;3.25;;;;;;;;;;5015302;28;20203;-61
2023/04/18 06:54:27;;;;;;;4.40;3.22;;;;;;;;;;5015474;28;20223;-62
2023/04/18 06:56:55;;;;;;;4.78;3.25;;;;;;;;;;5015609;28;20210;-61
2023/04/18 06:59:22;;;;;;;3.95;3.08;;;;;;;;;;5015574;28;20491;-61
2023/04/18 07:01:49;;;;;;;5.57;3.20;;;;;;;;;;5015960;28;20214;-61
2023/04/18 07:04:17;;;;;;;5.18;3.40;;;;;;;;;;5015033;28;20638;-62
2023/04/18 07:06:44;;;;;;;4.90;3.35;;;;;;;;;;5016024;28;20210;-62
2023/04/18 07:09:13;;;;;;;5.18;2.85;;;;;;;;;;5015336;28;20236;-61
2023/04/18 07:11:40;;;;;;;3.85;2.90;;;;;;;;;;5014837;28;20763;-62
2023/04/18 07:14:07;;;;;;;3.90;3.05;;;;;;;;;;5014926;28;20292;-62
2023/04/18 07:16:35;;;;;;;4.05;3.05;;;;;;;;;;5014723;28;20207;-63
2023/04/18 07:19:02;;;;;;;5.03;3.22;;;;;;;;;;5015113;28;20206;-62
2023/04/18 07:21:29;;;;;;;4.07;3.10;;;;;;;;;;5015356;28;20278;-62
2023/04/18 07:23:57;;;;;;;3.88;3.22;;;;;;;;;;5015007;28;20202;-62
2023/04/18 07:26:26;;;;;;;3.90;3.10;;;;;;;;;;5015240;28;20207;-62
2023/04/18 07:28:54;;;;;;;4.20;3.17;;;;;;;;;;5015167;28;20282;-62
2023/04/18 07:31:21;;;;;;;3.45;2.83;;;;;;;;;;5014959;28;20213;-62
2023/04/18 07:33:48;;;;;;;3.95;3.15;;;;;;;;;;5014785;28;20230;-62
2023/04/18 07:36:16;;;;;;;3.67;3.10;;;;;;;;;;5014677;28;20547;-62
2023/04/18 07:38:45;;;;;;;3.65;3.00;;;;;;;;;;5014429;28;20210;-62
2023/04/18 07:41:12;;;;;;;4.13;2.83;;;;;;;;;;5014746;28;20217;-62
2023/04/18 07:43:41;;;;;;;3.80;3.05;;;;;;;;;;5014883;28;20641;-62
2023/04/18 07:46:08;;;;;;;3.70;2.88;;;;;;;;;;5014326;28;20218;-62
2023/04/18 07:48:35;;;;;;;3.90;3.50;;;;;;;;;;5014584;28;20269;-62
2023/04/18 07:51:03;;;;;;;3.83;3.33;;;;;;;;;;5014057;28;20213;-62
2023/04/18 07:53:30;;;;;;;4.65;3.10;;;;;;;;;;5014803;28;20262;-61
2023/04/18 07:55:57;;;;;;;4.00;3.10;;;;;;;;;;5014846;28;20199;-62
2023/04/18 07:58:25;;;;;;;4.03;3.28;;;;;;;;;;5014538;28;20210;-62
2023/04/18 08:00:53;;;;;;;3.92;3.05;;;;;;;;;;5014461;28;20594;-62
2023/04/18 08:03:21;;;;;;;3.85;3.35;;;;;;;;;;5016868;28;20245;-62
2023/04/18 08:05:48;;;;;;;4.03;3.25;;;;;;;;;;5018102;28;20590;-62
2023/04/18 08:08:16;;;;;;;3.72;3.10;;;;;;;;;;5017936;28;20212;-62
2023/04/18 08:10:43;;;;;;;4.00;3.47;;;;;;;;;;5018492;28;20214;-62
2023/04/18 08:13:12;;;;;;;4.32;3.42;;;;;;;;;;5017414;28;20729;-62
2023/04/18 08:15:39;;;;;;;4.25;3.47;;;;;;;;;;5016971;28;20632;-62
2023/04/18 08:18:08;;;;;;;3.33;3.00;;;;;;;;;;5017334;28;20229;-62
2023/04/18 08:20:35;;;;;;;3.88;3.10;;;;;;;;;;5017697;28;20198;-62
2023/04/18 08:23:03;;;;;;;4.43;3.05;;;;;;;;;;5017784;28;20210;-62
2023/04/18 08:25:32;;;;;;;3.75;3.08;;;;;;;;;;5018429;28;20229;-62
2023/04/18 08:27:59;;;;;;;4.47;3.38;;;;;;;;;;5018638;28;20206;-62
2023/04/18 08:30:26;;;;;;;4.45;3.22;;;;;;;;;;5017440;28;20204;-62
2023/04/18 08:32:54;;;;;;;4.22;3.50;;;;;;;;;;5017596;28;20229;-62
2023/04/18 08:35:22;;;;;;;3.78;3.25;;;;;;;;;;5017668;28;20242;-62
2023/04/18 08:37:50;;;;;;;3.53;3.08;;;;;;;;;;5017728;28;20210;-62
2023/04/18 08:40:17;;;;;;;3.80;3.40;;;;;;;;;;5017862;28;20210;-62
2023/04/18 08:42:44;;;;;;;3.60;3.30;;;;;;;;;;5018008;28;20214;-62
2023/04/18 08:45:13;;;;;;;4.20;3.40;;;;;;;;;;5017120;28;20203;-62
2023/04/18 08:47:41;;;;;;;4.43;3.70;;;;;;;;;;5016990;28;20563;-62
2023/04/18 08:50:09;;;;;;;3.58;3.28;;;;;;;;;;5016774;28;20209;-62
2023/04/18 08:52:40;;;;;;;3.90;3.50;;;;;;;;;;5017237;28;20297;-62
2023/04/18 08:55:08;;;;;;;4.95;3.53;;;;;;;;;;5016213;28;20326;-62
2023/04/18 08:57:36;;;;;;;4.13;3.10;;;;;;;;;;5016957;28;20261;-62
2023/04/18 09:00:08;;;;;;;3.80;3.30;;;;;;;;;;5016310;28;20218;-62
2023/04/18 09:02:41;;;;;;;4.47;3.40;;;;;;;;;;5016686;28;20226;-62
2023/04/18 09:05:13;;;;;;;3.65;3.35;;;;;;;;;;5017179;28;20230;-62
2023/04/18 09:07:41;;;;;;;3.90;3.53;;;;;;;;;;5016554;28;20250;-62
2023/04/18 09:10:10;;;;;;;4.07;3.67;;;;;;;;;;5016436;28;20217;-62
2023/04/18 09:12:48;;;;;;;3.80;3.50;;;;;;;;;;5016397;28;20485;-62
2023/04/18 09:15:16;;;;;;;3.70;3.40;;;;;;;;;;5016057;28;20230;-62
2023/04/18 09:17:48;;;;;;;4.00;3.42;;;;;;;;;;5016628;28;20207;-62
2023/04/18 09:20:26;;;;;;;4.60;3.85;;;;;;;;;;5016190;28;20206;-63
2023/04/18 09:22:56;;;;;;;4.38;3.70;;;;;;;;;;5016769;28;20228;-62
2023/04/18 09:25:28;;;;;;;3.78;3.47;;;;;;;;;;5016935;28;20210;-62
2023/04/18 09:27:56;;;;;;;4.20;3.80;;;;;;;;;;5016430;28;20829;-62
2023/04/18 09:30:36;;;;;;;4.28;3.38;;;;;;;;;;5017195;28;20645;-62
2023/04/18 09:33:06;;;;;;;3.97;3.58;;;;;;;;;;5015866;28;20293;-62
2023/04/18 09:35:33;;;;;;;5.03;3.30;;;;;;;;;;5016381;28;20335;-62
2023/04/18 09:38:02;;;;;;;3.60;3.30;;;;;;;;;;5016080;28;20210;-62
2023/04/18 09:40:29;;;;;;;4.25;3.58;;;;;;;;;;5015552;28;20510;-62
2023/04/18 09:42:57;;;;;;;3.85;3.30;;;;;;;;;;5016184;28;20207;-62
2023/04/18 09:45:24;;;;;;;3.58;3.28;;;;;;;;;;5016004;28;20469;-62
2023/04/18 09:47:52;;;;;;;4.30;3.78;;;;;;;;;;5015562;28;20198;-62
2023/04/18 09:50:20;;;;;;;3.67;3.17;;;;;;;;;;5015848;28;20202;-62
2023/04/18 09:52:48;;;;;;;3.45;3.15;;;;;;;;;;5016026;28;20761;-62
2023/04/18 09:55:19;;;;;;;3.35;3.05;;;;;;;;;;5016315;28;20226;-62
2023/04/18 09:57:47;;;;;;;3.75;3.45;;;;;;;;;;5015819;28;20610;-62
2023/04/18 10:00:19;;;;;;;4.13;3.72;;;;;;;;;;5015458;28;20214;-62
2023/04/18 10:02:50;;;;;;;3.60;3.30;;;;;;;;;;5015377;28;20630;-62
2023/04/18 10:05:19;;;;;;;3.58;3.28;;;;;;;;;;5016103;28;20210;-62
2023/04/18 10:07:47;;;;;;;3.55;3.25;;;;;;;;;;5015881;28;20214;-62
2023/04/18 10:10:15;;;;;;;3.60;3.30;;;;;;;;;;5015237;28;20532;-62
2023/04/18 10:12:46;;;;;;;3.72;3.40;;;;;;;;;;5015207;28;20206;-62
2023/04/18 10:15:14;;;;;;;3.47;3.17;;;;;;;;;;5015413;28;20230;-62
2023/04/18 10:17:43;;;;;;;3.50;3.20;;;;;;;;;;5014950;28;20278;-62
2023/04/18 10:20:16;;;;;;;3.67;3.25;;;;;;;;;;5015927;28;20272;-62
2023/04/18 10:22:44;;;;;;;3.78;3.47;;;;;;;;;;5015250;28;20202;-62
2023/04/18 10:25:11;;;;;;;3.70;3.40;;;;;;;;;;5015524;28;20210;-62
2023/04/18 10:27:59;;;;;;;3.70;3.40;;;;;;;;;;5014724;28;20206;-62
2023/04/18 10:30:56;;;;;;;3.22;3.03;;;;;;;;;;5015154;28;20205;-62
2023/04/18 10:33:25;;;;;;;3.40;3.10;;;;;;;;;;4954175;29;20204;-62
2023/04/18 10:35:59;;;;;;;3.65;3.35;;;;;;;;;;5001445;28;20234;-62
2023/04/18 10:38:26;;;;;;;3.22;2.95;;;;;;;;;;5014458;28;20202;-62
2023/04/18 10:40:54;;;;;;;3.40;3.10;;;;;;;;;;5015107;28;20594;-62
2023/04/18 10:43:23;;;;;;;3.72;3.33;;;;;;;;;;5015533;28;20202;-62
2023/04/18 10:46:08;;;;;;;3.60;3.30;;;;;;;;;;5014744;28;20543;-62
2023/04/18 10:48:37;;;;;;;3.40;3.10;;;;;;;;;;5014573;28;20642;-62
2023/04/18 10:51:13;;;;;;;3.50;3.20;;;;;;;;;;5014988;28;20206;-62
2023/04/18 10:53:40;;;;;;;3.50;3.20;;;;;;;;;;5014608;28;20480;-62
2023/04/18 10:56:08;;;;;;;3.30;3.00;;;;;;;;;;5014396;28;20664;-62
2023/04/18 10:58:37;;;;;;;3.30;3.00;;;;;;;;;;5014469;28;20282;-62
2023/04/18 11:01:05;;;;;;;3.65;3.35;;;;;;;;;;5014907;28;20233;-63
2023/04/18 11:03:33;;;;;;;3.42;3.00;;;;;;;;;;5014363;28;20234;-62
2023/04/18 11:06:06;;;;;;;3.30;3.00;;;;;;;;;;5014425;28;20217;-62
2023/04/18 11:08:34;;;;;;;4.30;3.20;;;;;;;;;;5014034;28;20527;-62
2023/04/18 11:11:05;;;;;;;3.30;3.00;;;;;;;;;;5014251;28;20229;-62
2023/04/18 11:13:33;;;;;;;3.47;3.17;;;;;;;;;;5014436;28;20604;-62
2023/04/18 11:16:01;;;;;;;3.70;3.38;;;;;;;;;;5014657;28;20644;-62
2023/04/18 11:18:39;;;;;;;3.42;2.88;;;;;;;;;;5014120;28;20323;-62
2023/04/18 11:21:07;;;;;;;3.10;2.80;;;;;;;;;;5013529;28;20289;-62
2023/04/18 11:23:34;;;;;;;3.50;3.20;;;;;;;;;;5013178;28;20210;-62
2023/04/18 11:26:02;;;;;;;3.70;3.40;;;;;;;;;;5013853;28;20206;-62
2023/04/18 11:28:29;;;;;;;3.33;3.03;;;;;;;;;;5013945;28;20202;-62
2023/04/18 11:30:58;;;;;;;4.00;3.08;;;;;;;;;;5013678;28;20302;-62
2023/04/18 11:33:30;;;;;;;3.50;3.20;;;;;;;;;;5013283;28;20241;-62
2023/04/18 11:35:58;;;;;;;3.40;3.10;;;;;;;;;;5013703;28;20292;-62
2023/04/18 11:38:29;;;;;;;3.10;2.90;;;;;;;;;;5015462;28;20238;-62
2023/04/18 11:40:56;;;;;;;3.25;2.95;;;;;;;;;;5018406;28;20293;-62
2023/04/18 11:43:24;;;;;;;3.08;2.78;;;;;;;;;;5018197;28;20260;-62
2023/04/18 11:45:52;;;;;;;3.42;3.20;;;;;;;;;;5017333;28;20229;-62
2023/04/18 11:48:21;;;;;;;3.20;3.00;;;;;;;;;;5017122;28;20210;-62
2023/04/18 11:50:50;;;;;;;3.05;2.78;;;;;;;;;;5016838;28;20217;-62
2023/04/18 11:53:32;;;;;;;3.08;2.78;;;;;;;;;;5016550;28;20198;-62
2023/04/18 11:55:59;;;;;;;3.22;2.92;;;;;;;;;;5016815;28;20394;-61
2023/04/18 11:58:31;;;;;;;3.20;2.90;;;;;;;;;;5017128;28;20609;-62
2023/04/18 12:01:00;;;;;;;3.28;3.03;;;;;;;;;;5017525;28;20301;-62
2023/04/18 12:03:28;;;;;;;3.15;2.85;;;;;;;;;;5017298;28;20226;-62
2023/04/18 12:06:00;;;;;;;3.15;2.85;;;;;;;;;;5016888;28;20313;-62
2023/04/18 12:08:28;;;;;;;3.10;2.90;;;;;;;;;;5018185;28;20637;-62
2023/04/18 12:10:55;;;;;;;3.50;3.20;;;;;;;;;;5017815;28;20428;-62
2023/04/18 12:13:26;;;;;;;3.00;2.70;;;;;;;;;;5017176;28;20297;-62
2023/04/18 12:15:54;;;;;;;3.15;2.92;;;;;;;;;;5017288;28;20230;-62
2023/04/18 12:18:21;;;;;;;3.05;2.80;;;;;;;;;;5016740;28;20293;-62
2023/04/18 12:20:53;;;;;;;3.00;2.78;;;;;;;;;;5016987;28;20218;-62
2023/04/18 12:23:31;;;;;;;3.28;3.00;;;;;;;;;;5017271;28;20217;-62
2023/04/18 12:26:02;;;;;;;3.20;3.00;;;;;;;;;;5018021;28;20492;-62
2023/04/18 12:28:30;;;;;;;3.22;2.97;;;;;;;;;;5016497;28;20264;-61
2023/04/18 12:30:57;;;;;;;3.33;3.03;;;;;;;;;;5017062;28;20217;-61
2023/04/18 12:33:25;;;;;;;3.10;2.90;;;;;;;;;;5016830;28;20218;-61
2023/04/18 12:35:52;;;;;;;3.03;2.83;;;;;;;;;;5016010;28;20237;-62
2023/04/18 12:38:21;;;;;;;2.92;2.72;;;;;;;;;;5016350;28;20289;-62
2023/04/18 12:40:50;;;;;;;2.72;2.53;;;;;;;;;;5015965;28;20209;-62
2023/04/18 12:43:17;;;;;;;3.13;2.90;;;;;;;;;;5017051;28;20652;-62
2023/04/18 12:45:46;;;;;;;2.97;2.78;;;;;;;;;;5016806;28;20233;-62
2023/04/18 12:48:13;;;;;;;2.90;2.70;;;;;;;;;;5017162;28;20210;-62
2023/04/18 12:50:41;;;;;;;3.25;2.95;;;;;;;;;;5014519;28;20586;-62
2023/04/18 12:53:09;;;;;;;2.85;2.65;;;;;;;;;;5015804;28;20806;-62
2023/04/18 12:55:36;;;;;;;2.70;2.50;;;;;;;;;;5016094;28;20512;-62
2023/04/18 12:58:05;;;;;;;2.97;2.78;;;;;;;;;;5016668;28;20297;-62
2023/04/18 13:00:33;;;;;;;2.95;2.75;;;;;;;;;;5015710;28;20214;-62
2023/04/18 13:03:00;;;;;;;3.45;3.15;;;;;;;;;;5016604;28;20249;-62
2023/04/18 13:05:28;;;;;;;2.80;2.60;;;;;;;;;;5016665;28;20210;-62
2023/04/18 13:07:56;;;;;;;2.97;2.78;;;;;;;;;;5015562;28;20697;-62
2023/04/18 13:10:24;;;;;;;2.78;2.58;;;;;;;;;;5016525;28;20578;-62
2023/04/18 13:12:52;;;;;;;3.13;2.85;;;;;;;;;;5015973;28;20305;-62
2023/04/18 13:15:22;;;;;;;3.13;2.92;;;;;;;;;;5015864;28;20249;-62
2023/04/18 13:17:50;;;;;;;3.20;2.90;;;;;;;;;;5016010;28;20314;-62
2023/04/18 13:20:17;;;;;;;2.97;2.78;;;;;;;;;;5015355;28;20241;-62
2023/04/18 13:22:45;;;;;;;3.40;3.10;;;;;;;;;;5015501;28;20206;-62
2023/04/18 13:25:13;;;;;;;3.15;2.95;;;;;;;;;;5015797;28;20234;-62
2023/04/18 13:27:40;;;;;;;3.28;2.97;;;;;;;;;;5015477;28;20206;-62
2023/04/18 13:30:08;;;;;;;3.00;2.80;;;;;;;;;;5015866;28;20214;-61
2023/04/18 13:32:37;;;;;;;3.10;2.90;;;;;;;;;;5014806;28;20202;-61
2023/04/18 13:35:07;;;;;;;3.40;3.10;;;;;;;;;;5014465;28;20225;-62
2023/04/18 13:37:34;;;;;;;3.45;3.15;;;;;;;;;;5015945;28;20513;-62
2023/04/18 13:40:03;;;;;;;3.40;3.10;;;;;;;;;;5016228;28;20233;-62
2023/04/18 13:42:31;;;;;;;3.95;3.55;;;;;;;;;;5015801;28;20688;-62
2023/04/18 13:44:58;;;;;;;3.58;3.28;;;;;;;;;;5015949;28;20534;-62
2023/04/18 13:47:26;;;;;;;3.42;3.13;;;;;;;;;;5016168;28;20198;-62
2023/04/18 13:49:55;;;;;;;3.70;3.40;;;;;;;;;;5016171;28;20209;-62
2023/04/18 13:52:23;;;;;;;3.30;3.00;;;;;;;;;;5015622;28;20702;-62
2023/04/18 13:54:50;;;;;;;3.53;3.22;;;;;;;;;;5014788;28;20264;-62
2023/04/18 13:57:17;;;;;;;3.90;3.50;;;;;;;;;;5014630;28;20653;-62
2023/04/18 13:59:45;;;;;;;3.72;3.42;;;;;;;;;;5013812;28;20553;-62
2023/04/18 14:02:13;;;;;;;3.17;2.97;;;;;;;;;;5014422;28;20206;-62
2023/04/18 14:04:40;;;;;;;3.20;2.90;;;;;;;;;;5014962;28;20233;-62
2023/04/18 14:07:09;;;;;;;3.72;3.42;;;;;;;;;;5014618;28;20203;-62
2023/04/18 14:09:36;;;;;;;3.70;3.40;;;;;;;;;;5014429;28;20207;-61
2023/04/18 14:12:04;;;;;;;3.45;3.15;;;;;;;;;;5014811;28;20473;-61
2023/04/18 14:14:32;;;;;;;3.55;3.25;;;;;;;;;;5014084;28;20717;-61
2023/04/18 14:16:59;;;;;;;3.50;3.20;;;;;;;;;;5015403;28;20230;-61
2023/04/18 14:19:27;;;;;;;4.35;3.95;;;;;;;;;;5014440;28;20206;-62
2023/04/18 14:21:54;;;;;;;3.50;3.20;;;;;;;;;;5015037;28;20280;-62
2023/04/18 14:24:23;;;;;;;3.35;3.05;;;;;;;;;;5014898;28;20202;-62
2023/04/18 14:26:50;;;;;;;3.38;3.08;;;;;;;;;;5014547;28;20202;-62
2023/04/18 14:29:17;;;;;;;3.75;3.45;;;;;;;;;;5014862;28;20221;-62
2023/04/18 14:31:45;;;;;;;3.78;3.40;;;;;;;;;;5014121;28;20203;-62
2023/04/18 14:34:12;;;;;;;3.70;3.40;;;;;;;;;;5014181;28;20471;-62
2023/04/18 14:36:39;;;;;;;3.80;3.50;;;;;;;;;;5014727;28;20521;-62
2023/04/18 14:39:07;;;;;;;3.70;3.40;;;;;;;;;;5015186;28;20212;-62
2023/04/18 14:41:35;;;;;;;3.65;3.35;;;;;;;;;;5014140;28;20209;-61
2023/04/18 14:44:03;;;;;;;3.80;3.40;;;;;;;;;;5013752;28;20242;-61
2023/04/18 14:46:30;;;;;;;3.53;3.22;;;;;;;;;;5014900;28;20226;-62
2023/04/18 14:48:57;;;;;;;3.95;3.65;;;;;;;;;;5013208;28;20242;-62